Time;durP1;ratioP1;P1;durP2;ratioP2;P2;SDS_P1;SDS_P2;PMS_P1;PMS_P2;Temp;Humidity;BMP_temperature;BMP_pressure;BME280_temperature;BME280_humidity;BME280_pressure;Samples;Min_cycle;Max_cycle;Signal;HPM_P1;HPM_P2
2022/10/30 00:01:51;;;;;;;43.67;16.67;;;9.20;99.90;;;;;;8306914;28;20124;-93
2022/10/30 00:05:52;;;;;;;37.70;18.13;;;9.10;99.90;;;;;;8300239;28;20506;-93
2022/10/30 00:09:52;;;;;;;41.80;19.85;;;9.00;99.90;;;;;;8295164;28;20084;-92
2022/10/30 00:13:53;;;;;;;38.28;18.58;;;8.90;99.90;;;;;;8291533;28;20033;-93
2022/10/30 00:17:53;;;;;;;44.95;20.25;;;9.00;99.90;;;;;;8299971;28;20040;-92
2022/10/30 00:21:56;;;;;;;36.92;18.88;;;8.90;99.90;;;;;;8299301;28;20033;-92
2022/10/30 00:26:02;;;;;;;40.78;20.85;;;9.00;99.90;;;;;;8296290;28;20058;-92
2022/10/30 00:30:05;;;;;;;37.90;19.23;;;8.90;99.90;;;;;;8301338;28;20022;-92
2022/10/30 00:34:06;;;;;;;36.88;19.95;;;8.90;99.90;;;;;;8294082;28;20084;-92
2022/10/30 00:38:07;;;;;;;37.97;19.85;;;8.80;99.90;;;;;;8301895;28;20030;-92
2022/10/30 00:42:12;;;;;;;38.72;20.70;;;8.70;99.90;;;;;;8304901;28;20061;-91
2022/10/30 00:46:22;;;;;;;46.10;20.30;;;8.60;99.90;;;;;;8299216;28;20466;-91
2022/10/30 00:50:36;;;;;;;41.40;20.23;;;8.70;99.90;;;;;;8323190;28;20478;-92
2022/10/30 00:54:37;;;;;;;39.33;19.27;;;8.80;99.90;;;;;;8315655;28;20121;-92
2022/10/30 01:03:35;;;;;;;35.28;15.32;;;8.80;99.90;;;;;;8325528;28;20515;-84
2022/10/30 01:07:36;;;;;;;26.88;14.13;;;8.80;99.90;;;;;;8330386;28;20037;-84
2022/10/30 01:11:36;;;;;;;29.95;14.73;;;8.80;99.90;;;;;;8332991;28;20037;-84
2022/10/30 01:15:44;;;;;;;33.03;15.23;;;8.60;99.90;;;;;;8329979;28;20132;-84
2022/10/30 01:20:00;;;;;;;32.60;13.52;;;8.50;99.90;;;;;;8331664;28;20040;-84
2022/10/30 01:24:09;;;;;;;36.35;13.57;;;8.60;99.90;;;;;;8332708;28;20064;-84
2022/10/30 01:28:26;;;;;;;28.85;12.80;;;8.60;99.90;;;;;;8327531;28;20021;-84
2022/10/30 01:33:04;;;;;;;26.27;12.05;;;8.60;99.90;;;;;;8332333;28;20013;-84
2022/10/30 01:37:12;;;;;;;23.67;12.30;;;8.60;99.90;;;;;;8324808;28;20042;-84
2022/10/30 01:41:13;;;;;;;28.92;12.15;;;8.60;99.90;;;;;;8327354;28;20026;-84
2022/10/30 01:45:36;;;;;;;27.55;13.35;;;8.40;99.90;;;;;;8331805;28;20025;-84
2022/10/30 01:49:45;;;;;;;30.25;14.38;;;8.50;99.90;;;;;;8330112;28;20017;-84
2022/10/30 01:53:59;;;;;;;26.25;14.55;;;8.60;99.90;;;;;;8330336;28;20025;-84
2022/10/30 01:58:16;;;;;;;29.63;15.43;;;8.60;99.90;;;;;;8346542;28;20087;-84
2022/10/30 02:02:16;;;;;;;28.67;15.20;;;8.50;99.90;;;;;;8328977;28;20037;-84
2022/10/30 02:06:17;;;;;;;33.42;17.75;;;8.40;99.90;;;;;;8352859;28;20083;-84
2022/10/30 02:10:18;;;;;;;31.13;15.38;;;8.30;99.90;;;;;;8342934;28;20021;-84
2022/10/30 02:14:27;;;;;;;36.72;15.57;;;8.30;99.90;;;;;;8330563;28;20639;-84
2022/10/30 02:18:28;;;;;;;31.60;14.90;;;8.20;99.90;;;;;;8331395;28;20025;-84
2022/10/30 02:22:29;;;;;;;27.13;14.13;;;8.10;99.90;;;;;;8334245;28;20028;-84
2022/10/30 02:26:30;;;;;;;30.63;15.00;;;8.20;99.90;;;;;;8329330;28;20029;-84
2022/10/30 02:30:30;;;;;;;33.92;15.25;;;8.20;99.90;;;;;;8345939;28;20068;-85
2022/10/30 02:34:31;;;;;;;35.83;15.18;;;8.30;99.90;;;;;;8330381;28;20488;-85
2022/10/30 02:38:31;;;;;;;31.02;14.98;;;8.50;99.90;;;;;;8328627;28;20013;-84
2022/10/30 02:42:32;;;;;;;34.55;14.30;;;8.70;99.90;;;;;;8345821;28;20030;-83
2022/10/30 02:46:33;;;;;;;28.25;12.30;;;8.70;99.90;;;;;;8328233;28;20080;-84
2022/10/30 02:50:34;;;;;;;31.55;13.57;;;9.00;99.90;;;;;;8328460;28;20017;-84
2022/10/30 02:54:35;;;;;;;34.38;14.52;;;9.00;99.90;;;;;;8328155;28;20451;-84
2022/10/30 02:58:36;;;;;;;29.55;15.48;;;8.90;99.90;;;;;;8327850;28;20021;-84
2022/10/30 03:02:36;;;;;;;40.90;16.75;;;8.70;99.90;;;;;;8330802;28;20689;-84
2022/10/30 03:06:37;;;;;;;43.38;18.10;;;8.60;99.90;;;;;;8340379;28;20074;-84
2022/10/30 03:10:37;;;;;;;35.97;17.00;;;8.70;99.90;;;;;;8336797;28;20569;-84
2022/10/30 03:14:38;;;;;;;27.80;13.05;;;8.90;99.90;;;;;;8346241;28;20020;-84
2022/10/30 03:18:39;;;;;;;25.05;12.63;;;9.10;99.90;;;;;;8335127;28;20025;-84
2022/10/30 03:22:39;;;;;;;27.67;13.20;;;8.70;99.90;;;;;;8333250;28;20119;-84
2022/10/30 03:26:40;;;;;;;25.40;12.63;;;8.60;99.90;;;;;;8332186;28;20083;-84
2022/10/30 03:30:41;;;;;;;28.85;11.55;;;8.70;99.90;;;;;;8348207;28;20017;-84
2022/10/30 03:34:41;;;;;;;24.42;12.18;;;8.60;99.90;;;;;;8340382;28;20021;-84
2022/10/30 03:38:42;;;;;;;27.08;14.25;;;8.50;99.90;;;;;;8335867;28;20028;-84
2022/10/30 03:42:43;;;;;;;32.75;14.85;;;8.40;99.90;;;;;;8335898;28;20026;-84
2022/10/30 03:46:43;;;;;;;30.65;14.70;;;8.20;99.90;;;;;;8328176;28;20072;-84
2022/10/30 03:50:44;;;;;;;30.65;13.15;;;8.30;99.90;;;;;;8344045;28;20017;-83
2022/10/30 03:54:45;;;;;;;32.08;14.65;;;8.50;99.90;;;;;;8339764;28;20056;-84
2022/10/30 03:58:45;;;;;;;30.20;14.55;;;8.60;99.90;;;;;;8335849;28;20021;-84
2022/10/30 04:02:50;;;;;;;28.73;13.98;;;8.70;99.90;;;;;;8347183;28;20025;-84
2022/10/30 04:06:51;;;;;;;34.03;15.38;;;8.80;99.90;;;;;;8337824;28;20049;-84
2022/10/30 04:10:51;;;;;;;27.20;13.45;;;8.70;99.90;;;;;;8343230;28;20021;-84
2022/10/30 04:14:52;;;;;;;32.85;15.98;;;8.40;99.90;;;;;;8349399;28;20472;-84
2022/10/30 04:18:53;;;;;;;31.38;14.95;;;8.30;99.90;;;;;;8342842;28;20493;-84
2022/10/30 04:23:15;;;;;;;32.80;15.23;;;8.10;99.90;;;;;;8347562;28;20028;-84
2022/10/30 04:27:15;;;;;;;36.13;16.17;;;8.00;99.90;;;;;;8346370;28;20082;-84
2022/10/30 04:31:16;;;;;;;36.30;15.82;;;8.00;99.90;;;;;;8340596;28;20021;-84
2022/10/30 04:35:19;;;;;;;34.80;14.80;;;8.00;99.90;;;;;;8356037;28;20104;-83
2022/10/30 04:39:19;;;;;;;32.95;14.50;;;8.10;99.90;;;;;;8372168;28;20039;-84
2022/10/30 04:43:20;;;;;;;33.78;15.15;;;8.30;99.90;;;;;;8337316;28;20038;-84
2022/10/30 04:47:20;;;;;;;35.83;15.70;;;8.20;99.90;;;;;;8347756;28;20022;-84
2022/10/30 04:51:21;;;;;;;38.10;15.93;;;8.10;99.90;;;;;;8339434;28;20017;-84
2022/10/30 04:55:21;;;;;;;45.03;17.33;;;8.10;99.90;;;;;;8347261;28;20120;-84
2022/10/30 04:59:22;;;;;;;33.58;14.63;;;8.10;99.90;;;;;;8349879;28;20025;-83
2022/10/30 05:03:23;;;;;;;38.58;16.75;;;8.20;99.90;;;;;;8347360;28;20515;-84
2022/10/30 05:07:24;;;;;;;43.20;16.83;;;8.10;99.90;;;;;;8340587;28;20053;-84
2022/10/30 05:11:24;;;;;;;40.10;15.98;;;8.00;99.90;;;;;;8342419;28;20101;-84
2022/10/30 05:15:25;;;;;;;37.22;14.73;;;7.90;99.90;;;;;;8367069;28;20021;-83
2022/10/30 05:19:26;;;;;;;35.67;15.95;;;7.70;99.90;;;;;;8340074;28;20025;-83
2022/10/30 05:23:26;;;;;;;42.10;16.13;;;7.70;99.90;;;;;;8337792;28;20608;-84
2022/10/30 05:27:27;;;;;;;37.83;15.88;;;7.70;99.90;;;;;;8352192;28;20025;-84
2022/10/30 05:31:27;;;;;;;38.53;16.98;;;7.70;99.90;;;;;;8347084;28;20018;-84
2022/10/30 05:35:28;;;;;;;38.35;13.52;;;7.80;99.90;;;;;;8335112;28;20021;-84
2022/10/30 05:39:29;;;;;;;28.42;13.18;;;7.80;99.90;;;;;;8330984;28;21927;-83
2022/10/30 05:43:30;;;;;;;31.55;13.68;;;7.50;99.90;;;;;;8334516;28;20037;-83
2022/10/30 05:47:30;;;;;;;35.80;15.43;;;7.40;99.90;;;;;;8331140;28;20022;-84
2022/10/30 05:51:31;;;;;;;38.45;15.50;;;7.50;99.90;;;;;;8332776;28;20615;-84
2022/10/30 05:55:32;;;;;;;38.97;16.55;;;7.40;99.90;;;;;;8342796;28;20162;-83
2022/10/30 05:59:32;;;;;;;45.17;16.77;;;7.50;99.90;;;;;;8344616;28;20393;-83
2022/10/30 06:03:33;;;;;;;39.25;16.23;;;7.60;99.90;;;;;;8337640;28;20083;-84
2022/10/30 06:07:33;;;;;;;37.13;15.82;;;7.60;99.90;;;;;;8333006;28;20021;-84
2022/10/30 06:11:34;;;;;;;36.83;16.00;;;7.50;99.90;;;;;;8337594;28;20632;-84
2022/10/30 06:15:35;;;;;;;37.50;15.88;;;7.50;99.90;;;;;;8338000;28;20017;-83
2022/10/30 06:19:35;;;;;;;40.20;17.27;;;7.50;99.90;;;;;;8333927;28;20369;-83
2022/10/30 06:23:36;;;;;;;46.72;18.67;;;7.50;99.90;;;;;;8334656;28;20059;-83
2022/10/30 06:27:36;;;;;;;45.35;19.42;;;7.60;99.90;;;;;;8330111;28;20504;-83
2022/10/30 06:31:37;;;;;;;50.38;19.25;;;7.50;99.90;;;;;;8333226;28;20016;-83
2022/10/30 06:35:37;;;;;;;47.67;20.30;;;7.60;99.90;;;;;;8333475;28;20013;-84
2022/10/30 06:39:38;;;;;;;64.72;23.00;;;7.60;99.90;;;;;;8328862;28;20412;-83
2022/10/30 06:43:39;;;;;;;45.78;21.42;;;7.70;99.90;;;;;;8334395;28;20022;-84
2022/10/30 06:47:40;;;;;;;55.20;22.05;;;7.80;99.90;;;;;;8329488;28;20022;-83
2022/10/30 06:51:41;;;;;;;43.38;19.80;;;8.00;99.90;;;;;;8327206;28;20025;-84
2022/10/30 06:55:41;;;;;;;59.15;25.08;;;8.10;99.90;;;;;;8340213;28;20029;-84
2022/10/30 06:59:42;;;;;;;56.00;24.30;;;8.20;99.90;;;;;;8331702;28;20021;-84
2022/10/30 07:03:42;;;;;;;59.22;25.30;;;8.30;99.90;;;;;;8329016;28;20112;-84
2022/10/30 07:07:43;;;;;;;58.55;26.17;;;8.50;99.90;;;;;;8332119;28;20033;-87
2022/10/30 07:11:44;;;;;;;65.20;28.02;;;8.70;99.90;;;;;;8327682;28;20535;-87
2022/10/30 07:15:45;;;;;;;71.07;27.13;;;8.80;99.90;;;;;;8335961;28;20017;-87
2022/10/30 07:19:45;;;;;;;53.75;25.90;;;8.80;99.90;;;;;;8334619;28;20128;-87
2022/10/30 07:23:46;;;;;;;52.30;23.40;;;8.90;99.90;;;;;;8339113;28;20396;-87
2022/10/30 07:27:49;;;;;;;57.30;24.40;;;8.80;99.90;;;;;;8342093;28;20022;-88
2022/10/30 07:31:49;;;;;;;44.80;22.50;;;8.90;99.90;;;;;;8336534;28;20393;-88
2022/10/30 07:35:50;;;;;;;53.72;26.77;;;9.00;99.90;;;;;;8339062;28;20029;-88
2022/10/30 07:39:50;;;;;;;60.08;28.45;;;9.00;99.90;;;;;;8343717;28;20127;-88
2022/10/30 07:43:51;;;;;;;69.07;29.88;;;9.30;99.90;;;;;;8350949;28;20032;-88
2022/10/30 07:47:52;;;;;;;65.22;30.98;;;9.40;99.90;;;;;;8333796;28;20596;-89
2022/10/30 07:51:52;;;;;;;67.07;33.40;;;9.50;99.90;;;;;;8329268;28;20025;-87
2022/10/30 07:55:53;;;;;;;67.25;34.83;;;9.70;99.90;;;;;;8326652;28;20018;-87
2022/10/30 07:59:53;;;;;;;73.03;33.58;;;9.90;99.90;;;;;;8336060;28;20123;-88
2022/10/30 08:03:54;;;;;;;64.40;32.25;;;10.00;99.90;;;;;;8335933;28;20025;-88
2022/10/30 08:07:55;;;;;;;61.88;32.45;;;10.20;99.90;;;;;;8336975;28;20017;-88
2022/10/30 08:11:55;;;;;;;63.20;33.33;;;10.40;99.90;;;;;;8339583;28;20032;-88
2022/10/30 08:15:56;;;;;;;58.25;30.40;;;10.60;99.90;;;;;;8337125;28;20025;-87
2022/10/30 08:19:56;;;;;;;55.22;30.60;;;10.90;99.90;;;;;;8337580;28;20087;-88
2022/10/30 08:23:57;;;;;;;59.85;33.92;;;11.20;99.90;;;;;;8341325;28;20452;-87
2022/10/30 08:28:04;;;;;;;52.97;30.25;;;11.50;99.90;;;;;;8342152;28;20036;-89
2022/10/30 08:32:04;;;;;;;40.55;25.90;;;11.70;99.90;;;;;;8336108;28;20083;-89
2022/10/30 08:36:06;;;;;;;37.60;21.45;;;11.80;99.90;;;;;;8330101;28;20220;-88
2022/10/30 08:40:08;;;;;;;34.10;18.02;;;12.10;99.90;;;;;;8332313;28;20037;-88
2022/10/30 08:44:09;;;;;;;24.67;14.80;;;12.50;99.90;;;;;;8334791;28;20382;-89
2022/10/30 08:48:12;;;;;;;23.77;14.88;;;12.80;99.90;;;;;;8346058;28;20022;-88
2022/10/30 08:52:12;;;;;;;22.75;12.32;;;13.00;99.90;;;;;;8333758;28;20013;-88
2022/10/30 08:56:13;;;;;;;21.80;13.57;;;13.20;99.90;;;;;;8330898;28;20164;-89
2022/10/30 09:00:14;;;;;;;18.90;10.52;;;13.50;99.90;;;;;;8342355;28;20033;-89
2022/10/30 09:04:14;;;;;;;19.05;8.93;;;13.80;99.90;;;;;;8338279;28;20026;-90
2022/10/30 09:08:15;;;;;;;16.17;8.80;;;14.30;99.90;;;;;;8327609;28;20018;-89
2022/10/30 09:12:15;;;;;;;20.70;9.15;;;14.80;99.90;;;;;;8323545;28;20021;-89
2022/10/30 09:16:16;;;;;;;17.63;8.93;;;14.90;99.90;;;;;;8332343;28;20591;-90
2022/10/30 09:20:16;;;;;;;13.88;8.10;;;15.20;99.90;;;;;;8338439;28;20072;-90
2022/10/30 09:24:17;;;;;;;17.20;7.70;;;15.80;99.90;;;;;;8344089;28;20024;-89
2022/10/30 09:28:17;;;;;;;14.68;7.95;;;16.30;99.90;;;;;;8348618;28;20204;-91
2022/10/30 09:32:18;;;;;;;15.35;7.75;;;16.80;99.90;;;;;;8336481;28;20066;-90
2022/10/30 09:36:18;;;;;;;16.10;7.50;;;17.30;99.90;;;;;;8333822;28;20116;-92
2022/10/30 09:40:38;;;;;;;17.13;6.80;;;17.70;99.90;;;;;;8336074;28;20049;-90
2022/10/30 09:44:53;;;;;;;16.30;6.50;;;18.50;99.90;;;;;;8348881;28;20025;-90
2022/10/30 09:49:10;;;;;;;15.98;6.35;;;19.20;99.90;;;;;;8340650;28;20511;-89
2022/10/30 09:53:37;;;;;;;11.57;5.40;;;20.20;99.90;;;;;;8337645;28;20025;-90
2022/10/30 09:57:56;;;;;;;14.93;5.93;;;21.30;99.90;;;;;;8641824;22;20033;-91
2022/10/30 10:02:50;;;;;;;12.93;4.97;;;22.20;99.90;;;;;;8347431;28;20148;-91
2022/10/30 10:07:05;;;;;;;14.60;5.72;;;22.90;99.90;;;;;;8312317;28;20047;-90
2022/10/30 10:11:13;;;;;;;14.57;4.13;;;22.70;99.90;;;;;;8339838;28;20021;-90
2022/10/30 10:15:35;;;;;;;8.63;3.53;;;22.00;99.90;;;;;;8338377;28;20047;-90
2022/10/30 10:19:48;;;;;;;10.85;4.40;;;21.70;99.90;;;;;;8342004;28;20511;-90
2022/10/30 10:23:53;;;;;;;12.27;3.33;;;21.60;99.90;;;;;;8337052;28;20451;-91
2022/10/30 10:28:28;;;;;;;8.88;3.60;;;21.90;99.90;;;;;;8339669;28;20389;-91
2022/10/30 10:32:58;;;;;;;9.48;3.17;;;22.20;99.90;;;;;;8348909;28;20036;-91
2022/10/30 10:37:30;;;;;;;13.10;3.22;;;22.40;99.90;;;;;;8340803;28;20029;-92
2022/10/30 10:41:50;;;;;;;13.98;3.10;;;22.80;99.90;;;;;;8337545;28;20433;-91
2022/10/30 10:46:25;;;;;;;15.00;3.00;;;24.30;99.90;;;;;;8346490;28;20036;-90
2022/10/30 10:50:47;;;;;;;9.90;3.20;;;26.10;99.90;;;;;;8339408;28;20025;-90
2022/10/30 10:54:56;;;;;;;10.50;3.05;;;27.80;99.90;;;;;;8330361;28;20025;-90
2022/10/30 10:59:11;;;;;;;11.30;2.80;;;28.70;99.90;;;;;;8329717;28;20026;-90
2022/10/30 11:03:21;;;;;;;12.98;2.60;;;29.40;99.30;;;;;;8330625;28;20087;-89
2022/10/30 11:07:29;;;;;;;11.20;3.13;;;29.50;95.20;;;;;;8331421;28;20531;-90
2022/10/30 11:11:29;;;;;;;9.52;3.25;;;29.80;96.30;;;;;;8339640;28;20489;-90
2022/10/30 11:16:04;;;;;;;11.50;3.03;;;29.20;95.00;;;;;;8340378;28;20124;-90
2022/10/30 11:20:19;;;;;;;9.07;3.20;;;27.90;96.90;;;;;;8339868;28;20021;-90
2022/10/30 11:24:34;;;;;;;7.28;2.65;;;28.60;95.30;;;;;;8339108;28;20029;-90
2022/10/30 11:28:40;;;;;;;9.98;2.60;;;28.60;97.50;;;;;;8331936;28;20475;-90
2022/10/30 11:32:41;;;;;;;13.43;2.50;;;29.40;95.00;;;;;;8330327;28;20626;-90
2022/10/30 11:36:41;;;;;;;10.38;2.30;;;30.10;90.00;;;;;;8339781;28;20024;-90
2022/10/30 11:40:47;;;;;;;16.10;3.30;;;29.70;84.80;;;;;;8339760;28;20052;-90
2022/10/30 11:44:49;;;;;;;11.48;2.30;;;30.50;81.90;;;;;;8345361;28;20021;-90
2022/10/30 11:48:53;;;;;;;10.15;2.65;;;30.70;78.70;;;;;;8347485;28;20017;-90
2022/10/30 11:53:10;;;;;;;7.57;2.38;;;31.50;74.90;;;;;;8346298;28;20044;-89
2022/10/30 11:57:20;;;;;;;8.10;2.63;;;31.00;75.80;;;;;;8349510;28;20121;-87
2022/10/30 12:01:27;;;;;;;11.18;2.70;;;31.20;76.20;;;;;;8340200;28;20025;-90
2022/10/30 12:05:37;;;;;;;11.80;2.60;;;31.90;72.20;;;;;;8349708;28;20029;-90
2022/10/30 12:09:42;;;;;;;11.18;3.17;;;32.10;73.40;;;;;;8339622;28;20018;-90
2022/10/30 12:13:43;;;;;;;9.73;2.95;;;31.80;71.80;;;;;;8324203;28;20091;-90
2022/10/30 12:17:57;;;;;;;10.23;2.63;;;31.30;74.10;;;;;;8343924;28;20025;-90
2022/10/30 12:22:00;;;;;;;10.55;2.42;;;28.50;80.20;;;;;;8335693;28;20025;-90
2022/10/30 12:26:09;;;;;;;5.85;2.60;;;26.30;91.30;;;;;;8344111;28;20021;-90
2022/10/30 12:30:18;;;;;;;10.32;2.63;;;24.80;92.90;;;;;;8335297;28;20481;-90
2022/10/30 12:34:51;;;;;;;6.70;2.35;;;23.90;93.00;;;;;;8337709;28;20021;-90
2022/10/30 12:38:59;;;;;;;7.07;2.72;;;23.10;93.80;;;;;;8344811;28;20053;-90
2022/10/30 12:43:10;;;;;;;8.73;2.53;;;22.80;94.90;;;;;;8351972;28;20029;-90
2022/10/30 12:47:29;;;;;;;8.30;2.40;;;22.60;95.80;;;;;;8339973;28;20025;-90
2022/10/30 12:52:02;;;;;;;10.38;2.80;;;22.50;96.50;;;;;;8339675;28;20021;-89
2022/10/30 12:56:11;;;;;;;9.77;2.53;;;22.40;99.90;;;;;;8355447;28;20028;-90
2022/10/30 13:00:15;;;;;;;13.18;2.70;;;22.00;99.80;;;;;;8348984;28;20075;-89
2022/10/30 13:04:20;;;;;;;12.20;3.00;;;22.30;99.90;;;;;;8346058;28;20017;-89
2022/10/30 13:08:26;;;;;;;11.52;2.78;;;22.50;99.90;;;;;;8344653;28;20457;-90
2022/10/30 13:12:36;;;;;;;11.13;3.85;;;22.30;98.90;;;;;;8356974;28;20481;-90
2022/10/30 13:16:37;;;;;;;9.10;2.85;;;22.20;99.90;;;;;;8360318;28;20025;-90
2022/10/30 13:20:38;;;;;;;13.70;2.83;;;22.20;99.90;;;;;;8352526;28;20033;-90
2022/10/30 13:24:59;;;;;;;8.55;2.78;;;22.40;99.90;;;;;;8348556;28;20060;-90
2022/10/30 13:29:11;;;;;;;9.35;2.30;;;22.40;99.90;;;;;;8338710;28;20112;-90
2022/10/30 13:33:26;;;;;;;8.27;2.72;;;22.30;99.90;;;;;;8351314;28;20018;-90
2022/10/30 13:37:44;;;;;;;10.30;2.83;;;22.30;99.90;;;;;;8352213;28;20400;-90
2022/10/30 13:42:33;;;;;;;13.30;2.97;;;22.30;99.90;;;;;;8336265;28;20570;-90
2022/10/30 13:46:39;;;;;;;7.57;3.15;;;22.20;99.90;;;;;;8248190;28;20029;-90
2022/10/30 13:50:58;;;;;;;10.10;2.72;;;22.00;99.90;;;;;;8347183;28;20087;-90
2022/10/30 13:55:05;;;;;;;9.35;2.72;;;21.70;99.90;;;;;;8349543;28;20048;-91
2022/10/30 13:59:34;;;;;;;8.63;2.67;;;21.60;99.90;;;;;;8354426;28;20493;-90
2022/10/30 14:03:56;;;;;;;7.70;2.45;;;21.40;99.90;;;;;;8356395;28;20502;-90
2022/10/30 14:08:19;;;;;;;7.50;2.58;;;21.30;99.90;;;;;;8332544;28;20111;-90
2022/10/30 14:12:43;;;;;;;11.55;2.75;;;21.20;99.90;;;;;;8349533;28;20510;-90
2022/10/30 14:16:45;;;;;;;11.18;2.53;;;21.30;99.90;;;;;;8343582;28;20017;-90
2022/10/30 14:20:54;;;;;;;11.95;2.65;;;21.10;99.90;;;;;;8346826;28;20049;-90
2022/10/30 14:24:55;;;;;;;15.82;2.67;;;20.80;99.90;;;;;;8344846;28;20242;-91
2022/10/30 14:28:55;;;;;;;15.20;2.58;;;20.50;99.90;;;;;;8342263;28;20025;-90
2022/10/30 14:32:56;;;;;;;8.68;2.70;;;20.30;99.90;;;;;;8347263;28;20024;-90
2022/10/30 14:36:57;;;;;;;10.82;2.78;;;20.00;99.90;;;;;;8354559;28;20424;-90
2022/10/30 14:41:16;;;;;;;8.80;2.67;;;19.80;99.90;;;;;;8343860;28;20043;-90
2022/10/30 14:45:28;;;;;;;10.32;2.97;;;19.70;99.90;;;;;;8343210;28;20540;-90
2022/10/30 14:50:16;;;;;;;11.18;2.35;;;19.50;99.90;;;;;;8354016;28;20388;-90
2022/10/30 14:54:22;;;;;;;10.05;2.60;;;19.50;99.90;;;;;;8246285;28;20498;-90
2022/10/30 14:58:25;;;;;;;10.02;2.60;;;19.40;99.90;;;;;;8304557;28;20037;-90
2022/10/30 15:02:43;;;;;;;13.50;2.80;;;19.30;99.90;;;;;;8344231;28;20405;-90
2022/10/30 15:06:46;;;;;;;10.20;3.03;;;19.10;99.90;;;;;;8333930;28;20022;-90
2022/10/30 15:11:01;;;;;;;12.43;3.13;;;19.10;99.90;;;;;;8362556;28;20005;-89
2022/10/30 15:15:05;;;;;;;11.80;2.70;;;19.00;99.90;;;;;;8376030;28;20040;-90
2022/10/30 15:19:08;;;;;;;16.02;3.13;;;18.30;99.90;;;;;;8342396;28;20025;-90
2022/10/30 15:23:17;;;;;;;15.13;3.40;;;17.70;99.90;;;;;;8337815;28;20393;-90
2022/10/30 15:27:20;;;;;;;11.35;3.00;;;17.40;99.90;;;;;;8350741;28;20033;-90
2022/10/30 15:31:23;;;;;;;14.23;3.53;;;17.40;99.90;;;;;;8342872;28;20523;-90
2022/10/30 15:35:25;;;;;;;10.30;3.55;;;17.30;99.90;;;;;;8344302;28;20045;-90
2022/10/30 15:39:26;;;;;;;11.43;3.75;;;17.20;99.90;;;;;;8340184;28;20025;-91
2022/10/30 15:43:34;;;;;;;15.25;3.10;;;17.00;99.90;;;;;;8346124;28;20029;-90
2022/10/30 15:47:34;;;;;;;8.23;3.15;;;17.00;99.90;;;;;;8339418;28;20017;-91
2022/10/30 15:51:35;;;;;;;11.85;3.17;;;17.00;99.90;;;;;;8351002;28;20025;-91
2022/10/30 15:55:35;;;;;;;13.55;3.05;;;17.00;99.90;;;;;;8334052;28;20033;-91
2022/10/30 15:59:36;;;;;;;11.48;3.35;;;16.60;99.90;;;;;;8338664;28;20116;-90
2022/10/30 16:03:37;;;;;;;13.80;3.20;;;16.10;99.90;;;;;;8341347;28;20021;-91
2022/10/30 16:07:44;;;;;;;13.50;4.13;;;15.50;99.90;;;;;;8346388;28;20480;-91
2022/10/30 16:11:47;;;;;;;9.30;3.50;;;15.20;99.90;;;;;;8333678;28;20477;-91
2022/10/30 16:15:49;;;;;;;15.35;4.65;;;15.00;99.90;;;;;;8331958;28;20021;-91
2022/10/30 16:19:53;;;;;;;17.35;4.68;;;14.80;99.90;;;;;;8340115;28;20049;-90
2022/10/30 16:23:56;;;;;;;12.85;3.30;;;14.50;99.90;;;;;;8338162;28;20043;-91
2022/10/30 16:27:56;;;;;;;10.25;3.33;;;14.50;99.90;;;;;;8348979;28;20022;-91
2022/10/30 16:31:58;;;;;;;10.07;2.83;;;14.80;99.90;;;;;;8345860;28;20116;-91
2022/10/30 16:36:01;;;;;;;9.25;4.53;;;14.40;99.90;;;;;;8335212;28;20064;-91
2022/10/30 16:40:11;;;;;;;14.65;5.00;;;14.10;99.90;;;;;;8332250;28;20128;-91
2022/10/30 16:44:11;;;;;;;15.68;4.68;;;13.70;99.90;;;;;;8343534;28;20115;-91
2022/10/30 16:48:18;;;;;;;17.40;5.03;;;13.50;99.90;;;;;;8354968;28;20064;-91
2022/10/30 16:52:24;;;;;;;21.60;6.47;;;13.40;99.90;;;;;;8359097;28;20021;-92
2022/10/30 16:56:25;;;;;;;17.25;5.60;;;13.40;99.90;;;;;;8340912;28;20033;-91
2022/10/30 17:00:28;;;;;;;15.27;5.60;;;13.30;99.90;;;;;;8338697;28;20516;-92
2022/10/30 17:04:29;;;;;;;15.98;6.32;;;13.30;99.90;;;;;;8350205;28;20146;-92
2022/10/30 17:08:41;;;;;;;14.82;5.22;;;13.20;99.90;;;;;;8338502;28;20021;-92
2022/10/30 17:12:42;;;;;;;15.70;5.28;;;13.00;99.90;;;;;;8322119;28;20025;-86
2022/10/30 17:16:52;;;;;;;16.17;5.43;;;12.90;99.90;;;;;;8326226;28;20509;-86
2022/10/30 17:21:07;;;;;;;14.37;4.13;;;12.90;99.90;;;;;;8347621;28;20075;-86
2022/10/30 17:25:37;;;;;;;9.63;3.67;;;13.50;99.90;;;;;;8348981;28;20025;-86
2022/10/30 17:29:41;;;;;;;12.38;3.90;;;13.40;99.90;;;;;;8328026;28;20026;-86
2022/10/30 17:33:41;;;;;;;9.20;4.47;;;12.90;99.90;;;;;;8337724;28;20037;-86
2022/10/30 17:37:42;;;;;;;15.40;5.63;;;12.50;99.90;;;;;;8340323;28;20041;-87
2022/10/30 17:41:43;;;;;;;17.98;4.85;;;12.50;99.90;;;;;;8345078;28;20025;-87
2022/10/30 17:45:43;;;;;;;18.98;9.02;;;12.30;99.90;;;;;;8341796;28;20025;-87
2022/10/30 17:49:45;;;;;;;24.30;10.23;;;12.30;99.90;;;;;;8349170;28;20021;-87
2022/10/30 17:53:47;;;;;;;18.42;10.30;;;12.30;99.90;;;;;;8351244;28;20021;-87
2022/10/30 17:57:48;;;;;;;20.75;9.65;;;12.10;99.90;;;;;;8347115;28;20030;-86
2022/10/30 18:01:48;;;;;;;18.95;9.88;;;12.00;99.90;;;;;;8338963;28;20025;-86
2022/10/30 18:05:49;;;;;;;25.45;9.13;;;11.80;99.90;;;;;;8333807;28;20381;-86
2022/10/30 18:09:50;;;;;;;17.02;9.02;;;11.60;99.90;;;;;;8337912;28;20022;-86
2022/10/30 18:13:51;;;;;;;12.90;7.05;;;11.40;99.90;;;;;;8351942;28;20446;-87
2022/10/30 18:17:52;;;;;;;19.63;6.95;;;11.20;99.90;;;;;;8337604;28;20397;-87
2022/10/30 18:21:53;;;;;;;19.40;7.32;;;11.10;99.90;;;;;;8339559;28;20025;-86
2022/10/30 18:25:54;;;;;;;28.35;10.50;;;11.20;99.90;;;;;;8349165;28;20080;-86
2022/10/30 18:29:54;;;;;;;24.17;9.40;;;11.30;99.90;;;;;;8336338;28;20025;-86
2022/10/30 18:33:55;;;;;;;20.60;9.43;;;11.20;99.90;;;;;;8331273;28;20017;-87
2022/10/30 18:37:56;;;;;;;18.95;7.93;;;11.10;99.90;;;;;;8339848;28;20531;-86
2022/10/30 18:41:58;;;;;;;17.30;8.10;;;10.90;99.90;;;;;;8347835;28;20473;-87
2022/10/30 18:45:58;;;;;;;22.05;8.27;;;10.80;99.90;;;;;;8342954;28;20044;-86
2022/10/30 18:49:59;;;;;;;20.95;9.60;;;10.70;99.90;;;;;;8330718;28;20029;-87
2022/10/30 18:53:59;;;;;;;17.48;10.13;;;10.60;99.90;;;;;;8330733;28;20481;-87
2022/10/30 18:58:00;;;;;;;27.00;13.13;;;10.50;99.90;;;;;;8355413;28;21910;-86
2022/10/30 19:02:01;;;;;;;25.15;12.95;;;10.50;99.90;;;;;;8338104;28;20029;-87
2022/10/30 19:06:01;;;;;;;24.85;10.70;;;10.50;99.90;;;;;;8342150;28;20030;-87
2022/10/30 19:10:02;;;;;;;20.73;9.82;;;10.40;99.90;;;;;;8337579;28;20423;-87
2022/10/30 19:14:08;;;;;;;16.75;8.13;;;10.50;99.90;;;;;;8341612;28;20025;-87
2022/10/30 19:18:10;;;;;;;17.25;9.20;;;10.40;99.90;;;;;;8327937;28;20052;-86
2022/10/30 19:22:10;;;;;;;16.80;8.80;;;10.40;99.90;;;;;;8326803;28;20024;-87
2022/10/30 19:26:13;;;;;;;21.67;8.77;;;10.30;99.90;;;;;;8346675;28;20022;-87
2022/10/30 19:30:13;;;;;;;12.32;7.65;;;10.20;99.90;;;;;;8333221;28;20076;-87
2022/10/30 19:34:14;;;;;;;13.40;7.50;;;10.00;99.90;;;;;;8344657;28;20082;-86
2022/10/30 19:38:14;;;;;;;14.57;8.00;;;9.80;99.90;;;;;;8346046;28;20427;-87
2022/10/30 19:42:15;;;;;;;16.98;9.05;;;9.80;99.90;;;;;;8341224;28;20112;-86
2022/10/30 19:46:15;;;;;;;18.50;10.25;;;9.70;99.90;;;;;;8339187;28;20025;-87
2022/10/30 19:50:21;;;;;;;18.13;10.07;;;9.80;99.90;;;;;;8344115;28;20016;-86
2022/10/30 19:54:22;;;;;;;21.38;11.30;;;9.80;99.90;;;;;;8344958;28;20083;-86
2022/10/30 19:58:22;;;;;;;23.80;12.85;;;9.80;99.90;;;;;;8343835;28;20087;-86
2022/10/30 20:02:23;;;;;;;23.00;13.18;;;9.70;99.90;;;;;;8346604;28;20107;-86
2022/10/30 20:06:23;;;;;;;22.48;11.70;;;9.60;99.90;;;;;;8342723;28;20112;-87
2022/10/30 20:10:24;;;;;;;23.10;10.88;;;9.50;99.90;;;;;;8332887;28;20021;-87
2022/10/30 20:14:24;;;;;;;22.30;10.27;;;9.60;99.90;;;;;;8338914;28;20392;-86
2022/10/30 20:18:29;;;;;;;24.60;11.35;;;9.80;99.90;;;;;;8341935;28;20417;-86
2022/10/30 20:22:29;;;;;;;24.50;12.38;;;9.80;99.90;;;;;;8342257;28;20424;-86
2022/10/30 20:26:30;;;;;;;22.45;10.68;;;9.80;99.90;;;;;;8344887;28;20036;-86
2022/10/30 20:30:30;;;;;;;17.48;8.80;;;9.60;99.90;;;;;;8335634;28;20029;-86
2022/10/30 20:34:31;;;;;;;19.80;9.15;;;9.60;99.90;;;;;;8337633;28;20401;-86
2022/10/30 20:38:33;;;;;;;21.15;9.18;;;9.30;99.90;;;;;;8346954;28;20025;-86
2022/10/30 20:42:34;;;;;;;18.58;9.43;;;9.30;99.90;;;;;;8341654;28;20037;-86
2022/10/30 20:46:35;;;;;;;24.15;11.88;;;9.20;99.90;;;;;;8346726;28;20029;-86
2022/10/30 20:50:36;;;;;;;20.20;10.38;;;9.10;99.90;;;;;;8334716;28;20018;-86
2022/10/30 20:54:36;;;;;;;20.77;10.52;;;9.10;99.90;;;;;;8328809;28;20575;-86
2022/10/30 20:58:37;;;;;;;22.65;12.25;;;9.00;99.90;;;;;;8346472;28;20029;-86
2022/10/30 21:02:38;;;;;;;24.75;11.15;;;8.90;99.90;;;;;;8351063;28;20075;-86
2022/10/30 21:06:39;;;;;;;22.42;12.50;;;8.90;99.90;;;;;;8338778;28;20033;-86